createdAt,value
2018-12-13T00:00:22.731Z,14.67
2018-12-13T00:02:50.493Z,13.70
2018-12-13T00:05:18.259Z,14.90
2018-12-13T00:07:45.974Z,14.20
2018-12-13T00:10:13.754Z,15.47
2018-12-13T00:12:41.690Z,14.03
2018-12-13T00:15:09.402Z,15.27
2018-12-13T00:17:37.128Z,14.13
2018-12-13T00:20:05.364Z,15.43
2018-12-13T00:22:33.167Z,14.40
2018-12-13T00:25:00.842Z,14.63
2018-12-13T00:27:28.602Z,15.00
2018-12-13T00:29:59.824Z,15.00
2018-12-13T00:32:27.535Z,15.60
2018-12-13T00:34:55.276Z,15.33
2018-12-13T00:37:23.010Z,16.10
2018-12-13T00:39:50.758Z,16.40
2018-12-13T00:42:18.475Z,16.20
2018-12-13T00:44:46.176Z,14.60
2018-12-13T00:47:13.893Z,14.73
2018-12-13T00:49:41.603Z,14.77
2018-12-13T00:52:09.438Z,16.13
2018-12-13T00:54:37.118Z,15.13
2018-12-13T00:57:04.875Z,15.43
2018-12-13T00:59:32.533Z,14.67
2018-12-13T01:02:00.237Z,14.60
2018-12-13T01:04:28.409Z,15.50
2018-12-13T01:06:56.201Z,14.10
2018-12-13T01:09:23.915Z,14.67
2018-12-13T01:11:51.652Z,13.23
2018-12-13T01:14:19.334Z,16.27
2018-12-13T01:16:47.057Z,14.00
2018-12-13T01:19:14.822Z,12.70
2018-12-13T01:21:42.566Z,13.43
2018-12-13T01:24:10.324Z,13.70
2018-12-13T01:26:38.050Z,12.57
2018-12-13T01:29:05.743Z,13.43
2018-12-13T01:31:33.444Z,13.60
2018-12-13T01:34:01.194Z,13.90
2018-12-13T01:36:28.930Z,13.03
2018-12-13T01:38:56.747Z,13.23
2018-12-13T01:41:24.451Z,12.53
2018-12-13T01:43:52.180Z,12.37
2018-12-13T01:46:19.909Z,12.23
2018-12-13T01:48:47.640Z,10.67
2018-12-13T01:51:15.342Z,9.47
2018-12-13T01:53:43.180Z,9.83
2018-12-13T01:56:10.920Z,9.60
2018-12-13T01:58:38.656Z,9.00
2018-12-13T02:01:06.342Z,9.10
2018-12-13T02:03:34.080Z,8.63
2018-12-13T02:06:01.805Z,9.10
2018-12-13T02:08:29.496Z,8.53
2018-12-13T02:10:57.342Z,9.00
2018-12-13T02:13:25.112Z,9.70
2018-12-13T02:15:52.834Z,8.97
2018-12-13T02:18:20.582Z,9.07
2018-12-13T02:20:48.270Z,9.80
2018-12-13T02:23:15.965Z,9.83
2018-12-13T02:25:43.722Z,8.37
2018-12-13T02:28:11.576Z,10.30
2018-12-13T02:30:39.266Z,10.17
2018-12-13T02:33:07.006Z,9.27
2018-12-13T02:35:34.765Z,8.97
2018-12-13T02:38:02.595Z,9.03
2018-12-13T02:40:30.357Z,9.30
2018-12-13T02:42:58.047Z,9.70
2018-12-13T02:45:25.775Z,8.47
2018-12-13T02:47:53.475Z,8.80
2018-12-13T02:50:21.187Z,8.57
2018-12-13T02:52:48.979Z,8.40
2018-12-13T02:55:16.899Z,8.87
2018-12-13T02:57:44.613Z,8.47
2018-12-13T03:00:12.776Z,8.80
2018-12-13T03:02:40.558Z,8.63
2018-12-13T03:05:08.703Z,8.50
2018-12-13T03:07:36.465Z,8.20
2018-12-13T03:10:04.874Z,7.40
2018-12-13T03:12:32.617Z,8.13
2018-12-13T03:15:00.378Z,6.23
2018-12-13T03:17:28.136Z,6.10
2018-12-13T03:19:55.780Z,7.03
2018-12-13T03:22:23.454Z,6.57
2018-12-13T03:24:51.172Z,6.70
2018-12-13T03:27:18.915Z,7.57
2018-12-13T03:29:46.620Z,6.67
2018-12-13T03:32:14.383Z,6.10
2018-12-13T03:34:42.071Z,6.77
2018-12-13T03:37:09.754Z,7.70
2018-12-13T03:39:37.525Z,7.23
2018-12-13T03:42:05.330Z,7.43
2018-12-13T03:44:33.087Z,7.30
2018-12-13T03:47:00.981Z,7.83
2018-12-13T03:49:28.713Z,7.23
2018-12-13T03:51:56.440Z,6.67
2018-12-13T03:54:24.194Z,7.27
2018-12-13T03:56:51.956Z,8.13
2018-12-13T03:59:19.697Z,8.07
2018-12-13T04:01:47.443Z,8.00
2018-12-13T04:04:15.169Z,7.63
2018-12-13T04:06:42.859Z,8.47
2018-12-13T04:09:10.588Z,7.83
2018-12-13T04:11:38.376Z,8.37
2018-12-13T04:14:06.035Z,8.70
2018-12-13T04:16:33.843Z,9.00
2018-12-13T04:19:01.554Z,8.03
2018-12-13T04:21:29.290Z,9.47
2018-12-13T04:23:57.062Z,9.87
2018-12-13T04:26:24.789Z,8.67
2018-12-13T04:28:52.569Z,10.37
2018-12-13T04:31:20.289Z,14.87
2018-12-13T04:33:47.955Z,12.00
2018-12-13T04:36:15.669Z,11.13
2018-12-13T04:38:43.403Z,11.23
2018-12-13T04:41:11.093Z,11.93
2018-12-13T04:43:38.785Z,14.90
2018-12-13T04:46:06.572Z,11.03
2018-12-13T04:48:34.307Z,9.70
2018-12-13T04:51:02.003Z,9.30
2018-12-13T04:53:29.784Z,10.30
2018-12-13T04:55:57.543Z,9.53
2018-12-13T04:58:25.373Z,10.67
2018-12-13T05:00:53.199Z,9.70
2018-12-13T05:03:20.903Z,11.30
2018-12-13T05:05:48.581Z,12.93
2018-12-13T05:08:16.346Z,9.40
2018-12-13T05:10:52.374Z,11.37
2018-12-13T05:13:20.123Z,10.97
2018-12-13T05:15:47.798Z,10.10
2018-12-13T05:18:15.623Z,13.13
2018-12-13T05:20:43.371Z,11.60
2018-12-13T05:23:11.061Z,11.70
2018-12-13T05:25:38.725Z,11.90
2018-12-13T05:28:06.477Z,11.40
2018-12-13T05:30:34.488Z,10.93
2018-12-13T05:33:02.235Z,11.73
2018-12-13T05:35:29.951Z,12.43
2018-12-13T05:37:57.619Z,12.23
2018-12-13T05:40:25.301Z,11.40
2018-12-13T05:42:53.019Z,12.03
2018-12-13T05:45:20.739Z,12.20
2018-12-13T05:47:48.419Z,12.20
2018-12-13T05:50:16.149Z,12.20
2018-12-13T05:52:43.856Z,13.17
2018-12-13T05:55:11.534Z,13.53
2018-12-13T05:57:39.230Z,12.07
2018-12-13T06:00:08.521Z,13.17
2018-12-13T06:02:36.197Z,12.90
2018-12-13T06:05:05.214Z,12.50
2018-12-13T06:07:32.935Z,12.27
2018-12-13T06:10:00.815Z,13.03
2018-12-13T06:12:28.545Z,11.80
2018-12-13T06:14:56.267Z,13.40
2018-12-13T06:17:23.921Z,12.03
2018-12-13T06:19:51.621Z,12.10
2018-12-13T06:22:19.369Z,13.37
2018-12-13T06:24:47.065Z,11.77
2018-12-13T06:27:14.808Z,11.33
2018-12-13T06:29:59.077Z,12.37
2018-12-13T06:32:27.564Z,11.47
2018-12-13T06:34:55.262Z,10.93
2018-12-13T06:37:22.940Z,12.57
2018-12-13T06:39:50.680Z,11.90
2018-12-13T06:42:18.353Z,11.67
2018-12-13T06:44:46.008Z,12.37
2018-12-13T06:47:13.867Z,13.20
2018-12-13T06:49:41.545Z,14.13
2018-12-13T06:52:09.224Z,13.40
2018-12-13T06:54:36.970Z,14.60
2018-12-13T06:57:04.680Z,13.33
2018-12-13T06:59:32.342Z,14.10
2018-12-13T07:02:00.052Z,14.37
2018-12-13T07:04:27.760Z,13.63
2018-12-13T07:06:55.521Z,13.27
2018-12-13T07:09:23.276Z,11.30
2018-12-13T07:11:50.948Z,12.17
2018-12-13T07:14:18.700Z,11.57
2018-12-13T07:16:46.428Z,11.97
2018-12-13T07:19:14.182Z,12.27
2018-12-13T07:21:41.887Z,11.70
2018-12-13T07:24:09.692Z,10.40
2018-12-13T07:26:37.387Z,11.23
2018-12-13T07:29:05.094Z,11.63
2018-12-13T07:31:32.832Z,10.00
2018-12-13T07:34:00.466Z,9.73
2018-12-13T07:36:28.112Z,10.47
2018-12-13T07:38:55.895Z,10.77
2018-12-13T07:41:23.560Z,10.50
2018-12-13T07:43:51.246Z,10.30
2018-12-13T07:46:18.891Z,9.60
2018-12-13T07:48:46.550Z,8.83
2018-12-13T07:51:14.228Z,8.83
2018-12-13T07:53:41.918Z,9.13
2018-12-13T07:56:10.372Z,9.33
2018-12-13T07:58:38.044Z,9.27
2018-12-13T08:01:05.811Z,8.90
2018-12-13T08:03:33.644Z,9.47
2018-12-13T08:06:01.404Z,10.00
2018-12-13T08:08:29.128Z,8.90
2018-12-13T08:10:56.830Z,9.57
2018-12-13T08:13:24.515Z,8.27
2018-12-13T08:15:52.188Z,8.70
2018-12-13T08:18:19.819Z,8.67
2018-12-13T08:20:47.485Z,8.30
2018-12-13T08:23:15.192Z,8.40
2018-12-13T08:25:42.838Z,7.60
2018-12-13T08:28:10.524Z,8.77
2018-12-13T08:30:38.179Z,8.03
2018-12-13T08:33:05.852Z,7.67
2018-12-13T08:35:37.562Z,8.80
2018-12-13T08:38:05.260Z,8.70
2018-12-13T08:40:32.915Z,7.77
2018-12-13T08:43:00.560Z,7.97
2018-12-13T08:45:28.241Z,8.27
2018-12-13T08:47:55.936Z,8.07
2018-12-13T08:50:23.619Z,9.97
2018-12-13T08:52:51.336Z,8.90
2018-12-13T08:55:18.979Z,9.53
2018-12-13T08:57:46.608Z,8.50
2018-12-13T09:00:14.284Z,8.77
2018-12-13T09:02:41.968Z,8.73
2018-12-13T09:05:09.691Z,8.20
2018-12-13T09:07:37.373Z,8.57
2018-12-13T09:10:06.093Z,8.87
2018-12-13T09:12:33.768Z,7.77
2018-12-13T09:15:01.462Z,8.50
2018-12-13T09:17:29.168Z,7.60
2018-12-13T09:19:56.853Z,8.40
2018-12-13T09:22:24.505Z,7.83
2018-12-13T09:24:52.133Z,8.00
2018-12-13T09:27:19.809Z,8.57
2018-12-13T09:29:47.531Z,8.30
2018-12-13T09:32:15.243Z,8.57
2018-12-13T09:34:42.943Z,7.80
2018-12-13T09:37:10.697Z,7.67
2018-12-13T09:39:38.383Z,9.40
2018-12-13T09:42:06.053Z,8.00
2018-12-13T09:44:33.786Z,9.13
2018-12-13T09:47:01.471Z,10.13
2018-12-13T09:49:29.210Z,8.03
2018-12-13T09:51:56.899Z,8.60
2018-12-13T09:54:24.590Z,7.97
2018-12-13T09:56:52.285Z,7.57
2018-12-13T09:59:20.027Z,8.50
2018-12-13T10:01:47.742Z,6.73
2018-12-13T10:04:15.422Z,7.53
2018-12-13T10:06:43.185Z,7.20
2018-12-13T10:09:10.886Z,7.87
2018-12-13T10:11:38.537Z,8.37
2018-12-13T10:14:06.230Z,8.23
2018-12-13T10:16:33.911Z,8.23
2018-12-13T10:19:01.595Z,7.43
2018-12-13T10:21:29.294Z,7.10
2018-12-13T10:23:57.044Z,7.90
2018-12-13T10:26:31.632Z,7.23
2018-12-13T10:28:59.374Z,6.87
2018-12-13T10:31:27.227Z,6.87
2018-12-13T10:33:55.083Z,7.07
2018-12-13T10:36:22.765Z,8.00
2018-12-13T10:38:53.204Z,8.80
2018-12-13T10:41:20.280Z,8.00
2018-12-13T10:43:48.023Z,19.37
2018-12-13T10:46:15.804Z,8.47
2018-12-13T10:48:43.561Z,6.90
2018-12-13T10:51:11.261Z,8.40
2018-12-13T10:53:39.039Z,7.60
2018-12-13T10:56:06.800Z,7.80
2018-12-13T10:58:34.598Z,8.83
2018-12-13T11:01:07.784Z,7.30
2018-12-13T11:03:35.511Z,8.07
2018-12-13T11:06:04.048Z,8.03
2018-12-13T11:08:31.893Z,6.70
2018-12-13T11:10:59.637Z,7.80
2018-12-13T11:13:27.392Z,7.97
2018-12-13T11:15:55.243Z,7.40
2018-12-13T11:18:22.962Z,8.23
2018-12-13T11:20:50.658Z,7.13
2018-12-13T11:23:18.379Z,7.37
2018-12-13T11:25:46.051Z,8.47
2018-12-13T11:28:25.951Z,7.03
2018-12-13T11:30:53.643Z,8.30
2018-12-13T11:33:21.325Z,7.47
2018-12-13T11:35:49.105Z,8.10
2018-12-13T11:38:16.885Z,7.30
2018-12-13T11:40:44.591Z,7.27
2018-12-13T11:43:12.290Z,8.00
2018-12-13T11:45:39.994Z,7.37
2018-12-13T11:48:07.711Z,8.03
2018-12-13T11:50:35.463Z,8.13
2018-12-13T11:53:03.265Z,8.87
2018-12-13T11:55:38.212Z,9.93
2018-12-13T11:58:12.379Z,8.60
2018-12-13T12:00:40.114Z,8.07
2018-12-13T12:03:07.815Z,10.17
2018-12-13T12:05:35.607Z,8.77
2018-12-13T12:08:03.552Z,9.23
2018-12-13T12:10:31.240Z,9.23
2018-12-13T12:12:58.935Z,8.53
2018-12-13T12:15:26.770Z,8.77
2018-12-13T12:17:54.510Z,9.23
2018-12-13T12:20:22.192Z,10.00
2018-12-13T12:22:49.998Z,9.07
2018-12-13T12:25:17.653Z,12.33
2018-12-13T12:27:45.332Z,9.47
2018-12-13T12:30:13.022Z,10.03
2018-12-13T12:32:40.688Z,9.60
2018-12-13T12:35:08.391Z,9.97
2018-12-13T12:37:36.171Z,11.10
2018-12-13T12:40:05.328Z,11.10
2018-12-13T12:42:33.038Z,10.20
2018-12-13T12:45:00.731Z,9.87
2018-12-13T12:47:28.385Z,9.23
2018-12-13T12:49:56.075Z,9.83
2018-12-13T12:52:23.767Z,10.63
2018-12-13T12:54:51.409Z,10.27
2018-12-13T12:57:19.065Z,8.07
2018-12-13T12:59:46.783Z,8.40
2018-12-13T13:02:14.452Z,8.90
2018-12-13T13:04:42.052Z,9.60
2018-12-13T13:07:09.719Z,12.40
2018-12-13T13:09:37.479Z,14.10
2018-12-13T13:12:05.118Z,12.30
2018-12-13T13:14:32.752Z,10.53
2018-12-13T13:17:00.389Z,13.17
2018-12-13T13:19:28.075Z,12.67
2018-12-13T13:21:55.804Z,9.60
2018-12-13T13:24:23.429Z,7.90
2018-12-13T13:26:51.065Z,7.50
2018-12-13T13:29:18.731Z,8.00
2018-12-13T13:31:46.387Z,8.77
2018-12-13T13:34:14.026Z,8.77
2018-12-13T13:36:41.740Z,9.40
2018-12-13T13:39:09.394Z,8.67
2018-12-13T13:41:37.095Z,9.57
2018-12-13T13:44:04.758Z,7.03
2018-12-13T13:46:32.404Z,6.10
2018-12-13T13:49:00.039Z,6.97
2018-12-13T13:51:27.829Z,8.20
2018-12-13T13:53:55.556Z,8.30
2018-12-13T13:56:23.229Z,8.80
2018-12-13T13:58:50.908Z,6.73
2018-12-13T14:01:18.584Z,6.40
2018-12-13T14:03:46.228Z,7.50
2018-12-13T14:06:13.906Z,7.63
2018-12-13T14:08:41.588Z,7.07
2018-12-13T14:11:09.264Z,7.93
2018-12-13T14:13:36.940Z,8.00
2018-12-13T14:16:04.596Z,7.23
2018-12-13T14:18:32.228Z,7.07
2018-12-13T14:20:59.932Z,7.83
2018-12-13T14:23:27.580Z,7.40
2018-12-13T14:25:55.201Z,7.77
2018-12-13T14:28:22.890Z,8.03
2018-12-13T14:30:50.564Z,6.60
2018-12-13T14:33:18.477Z,9.00
2018-12-13T14:35:46.182Z,10.57
2018-12-13T14:38:13.836Z,9.37
2018-12-13T14:40:41.475Z,13.00
2018-12-13T14:43:09.234Z,12.13
2018-12-13T14:45:36.904Z,9.27
2018-12-13T14:48:04.599Z,9.83
2018-12-13T14:50:32.326Z,11.10
2018-12-13T14:52:59.946Z,10.03
2018-12-13T14:55:27.602Z,11.70
2018-12-13T14:57:55.271Z,9.20
2018-12-13T15:00:22.950Z,11.10
2018-12-13T15:02:50.600Z,10.37
2018-12-13T15:05:18.811Z,9.57
2018-12-13T15:07:46.486Z,9.87
2018-12-13T15:10:14.158Z,11.27
2018-12-13T15:12:41.894Z,12.63
2018-12-13T15:15:09.554Z,16.00
2018-12-13T15:17:37.192Z,15.40
2018-12-13T15:20:05.164Z,11.63
2018-12-13T15:22:32.852Z,7.87
2018-12-13T15:25:00.568Z,9.03
2018-12-13T15:27:28.270Z,9.80
2018-12-13T15:29:55.998Z,10.00
2018-12-13T15:32:23.757Z,7.83
2018-12-13T15:34:51.506Z,8.20
2018-12-13T15:37:19.222Z,7.87
2018-12-13T15:39:46.903Z,7.57
2018-12-13T15:42:14.660Z,10.57
2018-12-13T15:44:44.389Z,8.37
2018-12-13T15:47:12.097Z,9.63
2018-12-13T15:49:40.238Z,8.70
2018-12-13T15:52:07.960Z,8.20
2018-12-13T15:54:35.809Z,11.27
2018-12-13T15:57:03.539Z,9.37
2018-12-13T15:59:31.299Z,9.17
2018-12-13T16:05:51.668Z,9.27
2018-12-13T16:08:21.763Z,11.27
2018-12-13T16:10:49.572Z,9.30
2018-12-13T16:13:18.209Z,13.17
2018-12-13T16:15:46.036Z,12.57
2018-12-13T16:18:13.843Z,15.30
2018-12-13T16:20:41.660Z,15.50
2018-12-13T16:36:18.718Z,13.57
2018-12-13T16:38:46.546Z,14.93
2018-12-13T16:41:15.525Z,14.77
2018-12-13T16:43:45.190Z,17.37
2018-12-13T16:46:13.806Z,24.47
2018-12-13T16:48:41.869Z,16.27
2018-12-13T16:51:09.965Z,11.33
2018-12-13T16:53:37.980Z,20.70
2018-12-13T16:56:06.338Z,16.53
2018-12-13T16:58:34.044Z,11.67
2018-12-13T17:01:01.760Z,8.77
2018-12-13T17:03:39.844Z,9.70
2018-12-13T17:06:07.804Z,10.27
2018-12-13T17:08:35.734Z,11.30
2018-12-13T17:11:03.863Z,13.33
2018-12-13T17:13:32.074Z,14.07
2018-12-13T17:15:59.810Z,14.13
2018-12-13T17:18:27.869Z,10.33
2018-12-13T17:20:55.662Z,8.10
2018-12-13T17:23:23.374Z,9.83
2018-12-13T17:25:51.102Z,10.23
2018-12-13T17:28:18.835Z,16.10
2018-12-13T17:30:46.552Z,8.20
2018-12-13T17:33:14.340Z,9.07
2018-12-13T17:35:42.130Z,12.20
2018-12-13T17:38:11.833Z,12.83
2018-12-13T17:40:39.644Z,14.23
2018-12-13T17:43:07.376Z,16.33
2018-12-13T17:45:35.121Z,32.77
2018-12-13T17:48:02.869Z,11.73
2018-12-13T17:50:30.625Z,15.63
2018-12-13T17:52:58.444Z,8.93
2018-12-13T17:55:26.244Z,13.37
2018-12-13T17:57:53.916Z,10.87
2018-12-13T18:00:21.718Z,8.20
2018-12-13T18:02:49.439Z,11.43
2018-12-13T18:05:17.195Z,14.13
2018-12-13T18:07:44.958Z,15.00
2018-12-13T18:10:12.738Z,14.70
2018-12-13T18:12:40.616Z,14.67
2018-12-13T18:15:08.898Z,10.73
2018-12-13T18:17:36.695Z,11.50
2018-12-13T18:20:05.527Z,14.67
2018-12-13T18:22:33.305Z,12.37
2018-12-13T18:25:01.112Z,11.60
2018-12-13T18:27:28.855Z,10.93
2018-12-13T18:29:56.699Z,11.03
2018-12-13T18:32:24.523Z,11.10
2018-12-13T18:34:52.301Z,11.53
2018-12-13T18:37:20.027Z,12.87
2018-12-13T18:39:47.883Z,13.53
2018-12-13T18:42:15.631Z,10.33
2018-12-13T18:44:43.361Z,10.10
2018-12-13T18:47:11.185Z,9.93
2018-12-13T18:49:39.010Z,10.30
2018-12-13T18:52:06.763Z,11.87
2018-12-13T18:54:34.519Z,11.90
2018-12-13T18:57:02.193Z,12.40
2018-12-13T18:59:29.893Z,21.73
2018-12-13T19:01:58.679Z,14.33
2018-12-13T19:04:26.923Z,9.90
2018-12-13T19:06:54.626Z,11.00
2018-12-13T19:09:22.371Z,10.83
2018-12-13T19:11:50.065Z,11.73
2018-12-13T19:14:18.050Z,9.53
2018-12-13T19:16:45.789Z,9.97
2018-12-13T19:19:13.502Z,9.17
2018-12-13T19:21:41.208Z,9.23
2018-12-13T19:24:08.963Z,9.03
2018-12-13T19:26:36.887Z,9.60
2018-12-13T19:29:04.571Z,9.47
2018-12-13T19:31:32.308Z,7.63
2018-12-13T19:34:00.080Z,7.83
2018-12-13T19:36:27.879Z,8.57
2018-12-13T19:38:55.651Z,8.40
2018-12-13T19:41:23.387Z,8.93
2018-12-13T19:43:51.141Z,8.63
2018-12-13T19:46:18.919Z,8.23
2018-12-13T19:48:46.655Z,8.57
2018-12-13T19:51:14.478Z,10.10
2018-12-13T19:53:42.365Z,10.17
2018-12-13T19:56:10.286Z,9.67
2018-12-13T19:58:38.602Z,7.40
2018-12-13T20:01:06.593Z,10.33
2018-12-13T20:03:34.311Z,12.73
2018-12-13T20:06:02.070Z,14.03
2018-12-13T20:08:29.845Z,11.57
2018-12-13T20:10:57.678Z,10.40
2018-12-13T20:13:25.448Z,9.67
2018-12-13T20:15:53.197Z,10.40
2018-12-13T20:18:20.929Z,10.73
2018-12-13T20:20:48.607Z,10.17
2018-12-13T20:23:16.335Z,9.83
2018-12-13T20:25:46.604Z,9.97
2018-12-13T20:28:14.453Z,10.50
2018-12-13T20:30:42.183Z,11.33
2018-12-13T20:33:09.897Z,10.50
2018-12-13T20:35:37.591Z,9.83
2018-12-13T20:38:05.367Z,10.30
2018-12-13T20:40:33.174Z,10.57
2018-12-13T20:43:00.884Z,10.63
2018-12-13T20:45:28.739Z,11.93
2018-12-13T20:47:56.609Z,11.00
2018-12-13T20:50:24.364Z,12.47
2018-12-13T20:52:52.181Z,14.53
2018-12-13T20:55:19.953Z,20.00
2018-12-13T20:57:47.780Z,14.93
2018-12-13T21:00:15.883Z,13.53
2018-12-13T21:02:44.465Z,13.37
2018-12-13T21:05:12.210Z,13.03
2018-12-13T21:07:39.973Z,12.47
2018-12-13T21:10:09.281Z,12.27
2018-12-13T21:12:37.486Z,12.63
2018-12-13T21:15:07.257Z,12.60
2018-12-13T21:17:34.958Z,11.30
2018-12-13T21:20:02.881Z,11.07
2018-12-13T21:22:30.581Z,12.03
2018-12-13T21:24:58.288Z,10.87
2018-12-13T21:27:26.290Z,9.27
2018-12-13T21:29:54.077Z,10.10
2018-12-13T21:32:21.805Z,10.20
2018-12-13T21:34:49.658Z,12.50
2018-12-13T21:37:17.404Z,12.70
2018-12-13T21:39:45.104Z,11.97
2018-12-13T21:42:12.812Z,13.33
2018-12-13T21:44:44.108Z,15.20
2018-12-13T21:47:11.859Z,12.60
2018-12-13T21:49:39.583Z,12.47
2018-12-13T21:52:07.331Z,14.33
2018-12-13T21:54:35.037Z,13.90
2018-12-13T21:57:02.786Z,12.27
2018-12-13T21:59:30.518Z,12.73
2018-12-13T22:01:58.222Z,13.40
2018-12-13T22:04:25.948Z,13.80
2018-12-13T22:06:53.723Z,15.47
2018-12-13T22:09:21.590Z,13.90
2018-12-13T22:11:49.393Z,14.23
2018-12-13T22:14:17.181Z,15.33
2018-12-13T22:16:44.896Z,17.40
2018-12-13T22:19:12.622Z,18.53
2018-12-13T22:21:40.368Z,15.10
2018-12-13T22:24:08.142Z,15.17
2018-12-13T22:26:35.859Z,13.93
2018-12-13T22:29:03.596Z,16.23
2018-12-13T22:31:31.297Z,16.40
2018-12-13T22:33:59.051Z,17.47
2018-12-13T22:36:26.762Z,17.63
2018-12-13T22:38:54.445Z,16.03
2018-12-13T22:41:26.348Z,14.37
2018-12-13T22:43:51.982Z,12.40
2018-12-13T22:46:19.693Z,14.90
2018-12-13T22:48:47.403Z,13.60
2018-12-13T22:51:15.318Z,15.20
2018-12-13T22:53:43.051Z,14.07
2018-12-13T22:56:10.773Z,16.33
2018-12-13T22:58:38.460Z,12.83
2018-12-13T23:01:06.311Z,13.27
2018-12-13T23:03:34.117Z,12.07
2018-12-13T23:06:01.857Z,14.13
2018-12-13T23:08:29.537Z,12.93
2018-12-13T23:10:57.578Z,12.57
2018-12-13T23:13:25.312Z,13.23
2018-12-13T23:15:53.029Z,13.33
2018-12-13T23:18:20.727Z,12.07
2018-12-13T23:20:48.410Z,12.30
2018-12-13T23:23:16.106Z,13.07
2018-12-13T23:25:43.803Z,12.10
2018-12-13T23:28:11.483Z,12.20
2018-12-13T23:30:39.152Z,12.03
2018-12-13T23:33:06.823Z,13.13
2018-12-13T23:35:34.505Z,12.67
2018-12-13T23:38:02.179Z,12.33
2018-12-13T23:40:36.588Z,12.90
2018-12-13T23:43:04.316Z,11.40
2018-12-13T23:45:32.266Z,12.37
2018-12-13T23:48:00.013Z,12.53
2018-12-13T23:50:27.778Z,12.47
2018-12-13T23:52:55.499Z,11.63
2018-12-13T23:55:23.248Z,12.77
2018-12-13T23:57:50.910Z,11.87
